sensor_id;sensor_type;location;lat;lon;timestamp;P1;durP1;ratioP1;P2;durP2;ratioP2
18473;SDS011;30265;52.408;13.500;2022-09-09T00:08:20;16.35;;;8.20;;
18473;SDS011;30265;52.408;13.500;2022-09-09T00:18:51;13.85;;;8.38;;
18473;SDS011;30265;52.408;13.500;2022-09-09T00:29:23;13.40;;;7.53;;
18473;SDS011;30265;52.408;13.500;2022-09-09T00:39:48;10.40;;;7.15;;
18473;SDS011;30265;52.408;13.500;2022-09-09T00:50:32;10.05;;;6.53;;
18473;SDS011;30265;52.408;13.500;2022-09-09T01:01:08;10.07;;;6.32;;
18473;SDS011;30265;52.408;13.500;2022-09-09T01:11:46;11.95;;;6.75;;
18473;SDS011;30265;52.408;13.500;2022-09-09T01:22:33;11.30;;;6.90;;
18473;SDS011;30265;52.408;13.500;2022-09-09T01:33:00;11.30;;;6.28;;
18473;SDS011;30265;52.408;13.500;2022-09-09T01:43:22;11.65;;;7.15;;
18473;SDS011;30265;52.408;13.500;2022-09-09T01:53:46;11.68;;;6.50;;
18473;SDS011;30265;52.408;13.500;2022-09-09T02:04:12;12.82;;;6.43;;
18473;SDS011;30265;52.408;13.500;2022-09-09T02:14:38;10.48;;;6.70;;
18473;SDS011;30265;52.408;13.500;2022-09-09T02:25:02;10.25;;;6.55;;
18473;SDS011;30265;52.408;13.500;2022-09-09T02:35:28;13.43;;;7.03;;
18473;SDS011;30265;52.408;13.500;2022-09-09T02:45:52;13.43;;;7.35;;
18473;SDS011;30265;52.408;13.500;2022-09-09T02:56:18;11.70;;;6.83;;
18473;SDS011;30265;52.408;13.500;2022-09-09T03:06:42;16.98;;;6.80;;
18473;SDS011;30265;52.408;13.500;2022-09-09T03:17:12;11.30;;;6.97;;
18473;SDS011;30265;52.408;13.500;2022-09-09T03:27:41;14.15;;;6.35;;
18473;SDS011;30265;52.408;13.500;2022-09-09T03:38:06;11.30;;;6.15;;
18473;SDS011;30265;52.408;13.500;2022-09-09T03:48:30;12.13;;;6.90;;
18473;SDS011;30265;52.408;13.500;2022-09-09T03:58:53;11.93;;;7.30;;
18473;SDS011;30265;52.408;13.500;2022-09-09T04:09:15;16.25;;;7.13;;
18473;SDS011;30265;52.408;13.500;2022-09-09T04:19:38;14.57;;;6.95;;
18473;SDS011;30265;52.408;13.500;2022-09-09T04:30:00;9.88;;;6.55;;
18473;SDS011;30265;52.408;13.500;2022-09-09T04:40:25;11.60;;;6.75;;
18473;SDS011;30265;52.408;13.500;2022-09-09T04:50:53;10.93;;;6.85;;
18473;SDS011;30265;52.408;13.500;2022-09-09T05:01:17;10.77;;;6.82;;
18473;SDS011;30265;52.408;13.500;2022-09-09T05:11:39;8.45;;;5.68;;
18473;SDS011;30265;52.408;13.500;2022-09-09T05:22:14;8.75;;;5.35;;
18473;SDS011;30265;52.408;13.500;2022-09-09T05:32:40;9.68;;;6.32;;
18473;SDS011;30265;52.408;13.500;2022-09-09T05:43:04;7.40;;;5.25;;
18473;SDS011;30265;52.408;13.500;2022-09-09T05:53:26;10.45;;;4.32;;
18473;SDS011;30265;52.408;13.500;2022-09-09T06:03:50;7.65;;;4.78;;
18473;SDS011;30265;52.408;13.500;2022-09-09T06:14:13;4.97;;;3.90;;
18473;SDS011;30265;52.408;13.500;2022-09-09T06:24:39;6.28;;;3.88;;
18473;SDS011;30265;52.408;13.500;2022-09-09T06:35:01;7.35;;;3.92;;
18473;SDS011;30265;52.408;13.500;2022-09-09T06:45:24;5.00;;;3.40;;
18473;SDS011;30265;52.408;13.500;2022-09-09T06:55:50;6.47;;;3.08;;
18473;SDS011;30265;52.408;13.500;2022-09-09T07:06:13;9.20;;;3.28;;
18473;SDS011;30265;52.408;13.500;2022-09-09T07:16:37;5.45;;;3.17;;
18473;SDS011;30265;52.408;13.500;2022-09-09T07:27:01;5.15;;;2.70;;
18473;SDS011;30265;52.408;13.500;2022-09-09T07:37:23;8.02;;;2.40;;
18473;SDS011;30265;52.408;13.500;2022-09-09T07:47:47;5.50;;;2.13;;
18473;SDS011;30265;52.408;13.500;2022-09-09T07:58:10;9.67;;;2.70;;
18473;SDS011;30265;52.408;13.500;2022-09-09T08:08:33;5.55;;;2.17;;
18473;SDS011;30265;52.408;13.500;2022-09-09T08:18:55;8.98;;;2.00;;
18473;SDS011;30265;52.408;13.500;2022-09-09T08:29:18;4.57;;;1.90;;
18473;SDS011;30265;52.408;13.500;2022-09-09T08:39:40;4.53;;;2.00;;
18473;SDS011;30265;52.408;13.500;2022-09-09T08:50:11;8.55;;;2.10;;
18473;SDS011;30265;52.408;13.500;2022-09-09T09:00:37;4.60;;;2.40;;
18473;SDS011;30265;52.408;13.500;2022-09-09T09:11:02;6.45;;;2.42;;
18473;SDS011;30265;52.408;13.500;2022-09-09T09:21:26;4.93;;;2.10;;
18473;SDS011;30265;52.408;13.500;2022-09-09T09:31:52;3.92;;;1.65;;
18473;SDS011;30265;52.408;13.500;2022-09-09T09:42:17;3.78;;;1.90;;
18473;SDS011;30265;52.408;13.500;2022-09-09T09:52:51;4.43;;;2.10;;
18473;SDS011;30265;52.408;13.500;2022-09-09T10:03:19;4.47;;;2.20;;
18473;SDS011;30265;52.408;13.500;2022-09-09T10:13:47;6.40;;;2.40;;
18473;SDS011;30265;52.408;13.500;2022-09-09T10:34:55;6.28;;;2.10;;
18473;SDS011;30265;52.408;13.500;2022-09-09T10:45:17;5.50;;;2.00;;
18473;SDS011;30265;52.408;13.500;2022-09-09T10:55:41;3.10;;;1.53;;
18473;SDS011;30265;52.408;13.500;2022-09-09T11:06:04;6.25;;;2.20;;
18473;SDS011;30265;52.408;13.500;2022-09-09T11:16:29;7.18;;;2.05;;
18473;SDS011;30265;52.408;13.500;2022-09-09T11:26:52;5.03;;;2.55;;
18473;SDS011;30265;52.408;13.500;2022-09-09T11:47:37;6.00;;;1.70;;
18473;SDS011;30265;52.408;13.500;2022-09-09T11:57:58;4.67;;;1.30;;
18473;SDS011;30265;52.408;13.500;2022-09-09T12:08:23;3.95;;;1.45;;
18473;SDS011;30265;52.408;13.500;2022-09-09T12:18:47;2.97;;;1.48;;
18473;SDS011;30265;52.408;13.500;2022-09-09T12:29:12;4.88;;;1.60;;
18473;SDS011;30265;52.408;13.500;2022-09-09T12:39:38;10.38;;;1.40;;
18473;SDS011;30265;52.408;13.500;2022-09-09T12:50:04;1.45;;;1.30;;
18473;SDS011;30265;52.408;13.500;2022-09-09T13:10:49;3.90;;;1.20;;
18473;SDS011;30265;52.408;13.500;2022-09-09T13:21:30;4.13;;;1.55;;
18473;SDS011;30265;52.408;13.500;2022-09-09T13:31:54;4.80;;;1.50;;
18473;SDS011;30265;52.408;13.500;2022-09-09T13:42:19;3.08;;;1.52;;
18473;SDS011;30265;52.408;13.500;2022-09-09T13:52:44;5.18;;;1.67;;
18473;SDS011;30265;52.408;13.500;2022-09-09T14:03:05;4.63;;;1.65;;
18473;SDS011;30265;52.408;13.500;2022-09-09T14:13:28;4.95;;;1.92;;
18473;SDS011;30265;52.408;13.500;2022-09-09T14:23:49;4.38;;;1.60;;
18473;SDS011;30265;52.408;13.500;2022-09-09T14:34:13;4.05;;;1.40;;
18473;SDS011;30265;52.408;13.500;2022-09-09T14:44:34;12.27;;;1.90;;
18473;SDS011;30265;52.408;13.500;2022-09-09T14:54:59;7.35;;;1.60;;
18473;SDS011;30265;52.408;13.500;2022-09-09T15:05:20;6.70;;;1.70;;
18473;SDS011;30265;52.408;13.500;2022-09-09T15:15:43;8.15;;;2.05;;
18473;SDS011;30265;52.408;13.500;2022-09-09T15:26:04;2.23;;;1.30;;
18473;SDS011;30265;52.408;13.500;2022-09-09T15:36:28;4.35;;;1.30;;
18473;SDS011;30265;52.408;13.500;2022-09-09T15:46:49;3.85;;;1.25;;
18473;SDS011;30265;52.408;13.500;2022-09-09T15:57:13;5.43;;;1.40;;
18473;SDS011;30265;52.408;13.500;2022-09-09T16:07:34;6.85;;;1.83;;
18473;SDS011;30265;52.408;13.500;2022-09-09T16:17:57;6.63;;;1.70;;
18473;SDS011;30265;52.408;13.500;2022-09-09T16:28:18;4.13;;;1.87;;
18473;SDS011;30265;52.408;13.500;2022-09-09T16:38:41;6.03;;;1.80;;
18473;SDS011;30265;52.408;13.500;2022-09-09T16:49:03;4.28;;;1.90;;
18473;SDS011;30265;52.408;13.500;2022-09-09T16:59:27;6.13;;;1.90;;
18473;SDS011;30265;52.408;13.500;2022-09-09T17:09:48;3.72;;;1.70;;
18473;SDS011;30265;52.408;13.500;2022-09-09T17:20:11;9.73;;;2.38;;
18473;SDS011;30265;52.408;13.500;2022-09-09T17:30:33;3.80;;;1.83;;
18473;SDS011;30265;52.408;13.500;2022-09-09T17:41:04;5.43;;;2.38;;
18473;SDS011;30265;52.408;13.500;2022-09-09T17:51:26;5.15;;;2.33;;
18473;SDS011;30265;52.408;13.500;2022-09-09T18:01:51;7.93;;;1.90;;
18473;SDS011;30265;52.408;13.500;2022-09-09T18:12:12;4.78;;;2.63;;
18473;SDS011;30265;52.408;13.500;2022-09-09T18:22:35;5.45;;;2.58;;
18473;SDS011;30265;52.408;13.500;2022-09-09T18:32:57;8.07;;;2.63;;
18473;SDS011;30265;52.408;13.500;2022-09-09T18:43:21;4.15;;;2.55;;
18473;SDS011;30265;52.408;13.500;2022-09-09T18:53:42;3.50;;;2.22;;
18473;SDS011;30265;52.408;13.500;2022-09-09T19:04:06;4.53;;;2.55;;
18473;SDS011;30265;52.408;13.500;2022-09-09T19:14:28;3.50;;;2.72;;
18473;SDS011;30265;52.408;13.500;2022-09-09T19:24:51;5.00;;;2.75;;
18473;SDS011;30265;52.408;13.500;2022-09-09T19:35:14;4.80;;;2.10;;
18473;SDS011;30265;52.408;13.500;2022-09-09T19:45:43;6.20;;;2.20;;
18473;SDS011;30265;52.408;13.500;2022-09-09T19:56:06;4.05;;;1.90;;
18473;SDS011;30265;52.408;13.500;2022-09-09T20:06:33;2.20;;;1.50;;
18473;SDS011;30265;52.408;13.500;2022-09-09T20:16:58;6.38;;;1.55;;
18473;SDS011;30265;52.408;13.500;2022-09-09T20:27:21;9.30;;;2.40;;
18473;SDS011;30265;52.408;13.500;2022-09-09T20:37:46;4.72;;;2.25;;
18473;SDS011;30265;52.408;13.500;2022-09-09T20:48:12;2.78;;;1.80;;
18473;SDS011;30265;52.408;13.500;2022-09-09T20:58:37;3.65;;;1.83;;
18473;SDS011;30265;52.408;13.500;2022-09-09T21:09:04;9.00;;;1.92;;
18473;SDS011;30265;52.408;13.500;2022-09-09T21:19:25;3.40;;;1.80;;
18473;SDS011;30265;52.408;13.500;2022-09-09T21:29:54;5.45;;;2.00;;
18473;SDS011;30265;52.408;13.500;2022-09-09T21:40:20;4.35;;;2.08;;
18473;SDS011;30265;52.408;13.500;2022-09-09T21:50:44;7.95;;;2.50;;
18473;SDS011;30265;52.408;13.500;2022-09-09T22:01:07;7.00;;;2.17;;
18473;SDS011;30265;52.408;13.500;2022-09-09T22:11:37;2.90;;;1.95;;
18473;SDS011;30265;52.408;13.500;2022-09-09T22:22:01;5.03;;;2.10;;
18473;SDS011;30265;52.408;13.500;2022-09-09T22:32:24;6.53;;;1.90;;
18473;SDS011;30265;52.408;13.500;2022-09-09T22:42:47;3.53;;;1.98;;
18473;SDS011;30265;52.408;13.500;2022-09-09T22:53:14;3.65;;;2.40;;
18473;SDS011;30265;52.408;13.500;2022-09-09T23:03:37;4.10;;;2.40;;
18473;SDS011;30265;52.408;13.500;2022-09-09T23:14:19;3.92;;;2.42;;
18473;SDS011;30265;52.408;13.500;2022-09-09T23:24:43;6.33;;;3.00;;
18473;SDS011;30265;52.408;13.500;2022-09-09T23:35:09;11.27;;;2.78;;
18473;SDS011;30265;52.408;13.500;2022-09-09T23:45:31;3.35;;;2.33;;
18473;SDS011;30265;52.408;13.500;2022-09-09T23:56:04;4.32;;;2.40;;
